createdAt,value
2018-12-02T00:00:19.464Z,93979.86
2018-12-02T00:02:47.534Z,93979.34
2018-12-02T00:05:15.802Z,93987.38
2018-12-02T00:07:43.841Z,93976.82
2018-12-02T00:10:12.810Z,93970.22
2018-12-02T00:12:40.848Z,93973.63
2018-12-02T00:15:12.924Z,93971.59
2018-12-02T00:17:40.949Z,93975.77
2018-12-02T00:20:12.015Z,93960.73
2018-12-02T00:22:40.198Z,93965.19
2018-12-02T00:25:13.968Z,93966.22
2018-12-02T00:27:43.121Z,93952.52
2018-12-02T00:30:13.150Z,93952.28
2018-12-02T00:32:41.289Z,93945.30
2018-12-02T00:35:11.711Z,93951.23
2018-12-02T00:37:40.042Z,93948.13
2018-12-02T00:40:13.077Z,93935.27
2018-12-02T00:42:41.728Z,93934.47
2018-12-02T00:45:11.829Z,93944.52
2018-12-02T00:47:40.201Z,93940.59
2018-12-02T00:50:11.304Z,93933.24
2018-12-02T00:52:39.552Z,93938.58
2018-12-02T00:55:10.265Z,93930.09
2018-12-02T00:57:38.285Z,93937.74
2018-12-02T01:00:12.751Z,93919.11
2018-12-02T01:02:40.836Z,93920.95
2018-12-02T01:05:13.774Z,93922.05
2018-12-02T01:07:41.820Z,93920.95
2018-12-02T01:10:13.257Z,93916.61
2018-12-02T01:12:41.311Z,93915.09
2018-12-02T01:15:13.350Z,93914.85
2018-12-02T01:17:41.401Z,93899.73
2018-12-02T01:20:12.500Z,93916.09
2018-12-02T01:22:40.562Z,93906.90
2018-12-02T01:25:09.678Z,93902.98
2018-12-02T01:27:37.709Z,93902.67
2018-12-02T01:30:09.950Z,93915.12
2018-12-02T01:32:37.994Z,93910.39
2018-12-02T01:35:06.131Z,93897.67
2018-12-02T01:37:34.191Z,93896.77
2018-12-02T01:40:02.461Z,93886.34
2018-12-02T01:42:30.505Z,93895.93
2018-12-02T01:44:58.543Z,93883.33
2018-12-02T01:47:26.569Z,93882.13
2018-12-02T01:49:54.586Z,93874.08
2018-12-02T01:52:22.662Z,93867.96
2018-12-02T01:54:50.669Z,93851.91
2018-12-02T01:57:18.703Z,93852.25
2018-12-02T01:59:46.733Z,93843.97
2018-12-02T02:02:14.762Z,93843.69
2018-12-02T02:04:42.866Z,93837.42
2018-12-02T02:07:10.858Z,93830.15
2018-12-02T02:09:38.889Z,93820.44
2018-12-02T02:12:06.931Z,93827.95
2018-12-02T02:14:34.997Z,93823.62
2018-12-02T02:17:03.046Z,93805.29
2018-12-02T02:19:31.313Z,93796.11
2018-12-02T02:21:59.355Z,93794.52
2018-12-02T02:24:27.406Z,93795.76
2018-12-02T02:26:55.418Z,93802.36
2018-12-02T02:29:23.440Z,93789.93
2018-12-02T02:31:51.521Z,93793.46
2018-12-02T02:34:19.551Z,93782.02
2018-12-02T02:36:47.608Z,93779.58
2018-12-02T02:39:15.649Z,93784.47
2018-12-02T02:41:43.686Z,93772.84
2018-12-02T02:44:11.717Z,93768.34
2018-12-02T02:46:39.768Z,93759.52
2018-12-02T02:49:07.797Z,93749.97
2018-12-02T02:51:35.888Z,93743.89
2018-12-02T02:54:03.941Z,93737.70
2018-12-02T02:56:31.979Z,93724.86
2018-12-02T02:59:00.006Z,93724.81
2018-12-02T03:01:28.041Z,93731.70
2018-12-02T03:03:56.068Z,93730.47
2018-12-02T03:06:24.191Z,93732.05
2018-12-02T03:08:52.261Z,93722.80
2018-12-02T03:11:20.325Z,93707.90
2018-12-02T03:13:48.343Z,93715.09
2018-12-02T03:16:16.405Z,93734.38
2018-12-02T03:18:44.431Z,93729.53
2018-12-02T03:21:12.450Z,93720.77
2018-12-02T03:23:40.482Z,93711.34
2018-12-02T03:26:08.506Z,93696.59
2018-12-02T03:28:36.523Z,93686.70
2018-12-02T03:31:05.698Z,93691.86
2018-12-02T03:33:33.721Z,93695.97
2018-12-02T03:36:01.757Z,93695.27
2018-12-02T03:38:29.774Z,93684.20
2018-12-02T03:40:57.821Z,93677.34
2018-12-02T03:43:25.858Z,93685.53
2018-12-02T03:45:53.871Z,93681.70
2018-12-02T03:48:21.910Z,93677.75
2018-12-02T03:50:49.963Z,93666.29
2018-12-02T03:53:17.969Z,93682.17
2018-12-02T03:55:46.002Z,93683.45
2018-12-02T03:58:14.022Z,93681.63
2018-12-02T04:00:54.117Z,93682.33
2018-12-02T04:03:22.139Z,93671.13
2018-12-02T04:05:50.187Z,93660.58
2018-12-02T04:08:18.215Z,93670.13
2018-12-02T04:10:46.248Z,93678.18
2018-12-02T04:13:14.285Z,93675.41
2018-12-02T04:15:42.318Z,93664.78
2018-12-02T04:18:10.370Z,93667.66
2018-12-02T04:20:38.438Z,93669.55
2018-12-02T04:23:06.640Z,93665.38
2018-12-02T04:25:34.694Z,93663.46
2018-12-02T04:28:02.738Z,93660.36
2018-12-02T04:30:30.782Z,93652.77
2018-12-02T04:32:58.860Z,93653.83
2018-12-02T04:35:27.015Z,93654.63
2018-12-02T04:37:55.092Z,93642.59
2018-12-02T04:40:23.104Z,93647.98
2018-12-02T04:42:51.147Z,93642.06
2018-12-02T04:45:19.985Z,93644.75
2018-12-02T04:47:48.341Z,93635.63
2018-12-02T04:50:18.975Z,93628.52
2018-12-02T04:52:47.000Z,93631.48
2018-12-02T04:55:15.102Z,93620.34
2018-12-02T04:57:43.158Z,93614.55
2018-12-02T05:00:20.553Z,93614.56
2018-12-02T05:02:51.399Z,93603.84
2018-12-02T05:05:20.352Z,93604.69
2018-12-02T05:07:48.412Z,93600.28
2018-12-02T05:10:17.312Z,93590.44
2018-12-02T05:12:45.370Z,93585.84
2018-12-02T05:15:14.311Z,93579.80
2018-12-02T05:17:42.337Z,93577.70
2018-12-02T05:20:18.962Z,93583.30
2018-12-02T05:22:47.111Z,93577.81
2018-12-02T05:25:17.885Z,93571.27
2018-12-02T05:27:43.843Z,93570.16
2018-12-02T05:30:17.698Z,93563.23
2018-12-02T05:32:46.523Z,93560.06
2018-12-02T05:35:14.860Z,93562.94
2018-12-02T05:37:42.905Z,93556.64
2018-12-02T05:40:11.929Z,93554.57
2018-12-02T05:42:40.003Z,93551.91
2018-12-02T05:45:09.633Z,93549.27
2018-12-02T05:47:37.683Z,93540.75
2018-12-02T05:50:09.504Z,93546.90
2018-12-02T05:52:37.561Z,93545.45
2018-12-02T05:55:06.561Z,93543.92
2018-12-02T05:57:34.597Z,93539.88
2018-12-02T06:00:02.631Z,93542.47
2018-12-02T06:02:30.669Z,93538.70
2018-12-02T06:04:58.716Z,93536.77
2018-12-02T06:07:26.744Z,93537.33
2018-12-02T06:09:54.758Z,93532.48
2018-12-02T06:12:22.783Z,93529.97
2018-12-02T06:14:50.828Z,93530.48
2018-12-02T06:17:18.859Z,93520.42
2018-12-02T06:19:47.023Z,93515.02
2018-12-02T06:22:15.058Z,93511.29
2018-12-02T06:24:43.089Z,93509.80
2018-12-02T06:27:11.124Z,93506.67
2018-12-02T06:29:39.141Z,93506.69
2018-12-02T06:32:07.178Z,93512.08
2018-12-02T06:34:35.268Z,93502.35
2018-12-02T06:37:03.350Z,93507.36
2018-12-02T06:39:31.496Z,93499.30
2018-12-02T06:41:59.530Z,93493.03
2018-12-02T06:44:27.987Z,93505.12
2018-12-02T06:46:56.035Z,93492.40
2018-12-02T06:49:24.079Z,93488.66
2018-12-02T06:51:52.130Z,93498.17
2018-12-02T06:54:20.204Z,93491.58
2018-12-02T06:56:48.238Z,93494.30
2018-12-02T06:59:48.416Z,93491.48
2018-12-02T07:03:10.287Z,93488.88
2018-12-02T07:05:38.528Z,93488.56
2018-12-02T07:08:06.631Z,93494.86
2018-12-02T07:10:34.717Z,93486.43
2018-12-02T07:13:02.767Z,93486.73
2018-12-02T07:15:30.839Z,93488.91
2018-12-02T07:17:58.943Z,93480.06
2018-12-02T07:20:27.126Z,93478.97
2018-12-02T07:22:55.153Z,93475.62
2018-12-02T07:25:23.735Z,93477.65
2018-12-02T07:27:51.892Z,93476.23
2018-12-02T07:30:24.906Z,93477.16
2018-12-02T07:32:48.110Z,93469.30
2018-12-02T07:35:16.169Z,93463.77
2018-12-02T07:37:47.902Z,93465.42
2018-12-02T07:40:19.883Z,93468.13
2018-12-02T07:42:48.465Z,93464.72
2018-12-02T07:45:16.498Z,93459.20
2018-12-02T07:47:44.568Z,93461.50
2018-12-02T07:50:12.627Z,93466.72
2018-12-02T07:52:40.677Z,93462.73
2018-12-02T07:55:09.318Z,93468.86
2018-12-02T07:57:38.567Z,93465.58
2018-12-02T08:00:12.509Z,93464.67
2018-12-02T08:02:40.676Z,93466.98
2018-12-02T08:05:10.954Z,93469.80
2018-12-02T08:07:39.053Z,93465.64
2018-12-02T08:10:11.421Z,93458.27
2018-12-02T08:12:39.522Z,93458.75
2018-12-02T08:15:10.909Z,93455.66
2018-12-02T08:17:39.134Z,93448.88
2018-12-02T08:20:13.449Z,93449.98
2018-12-02T08:22:41.635Z,93444.79
2018-12-02T08:25:11.781Z,93450.09
2018-12-02T08:27:40.017Z,93437.71
2018-12-02T08:30:17.871Z,93428.50
2018-12-02T08:32:45.938Z,93428.82
2018-12-02T08:35:14.932Z,93428.97
2018-12-02T08:37:43.956Z,93431.52
2018-12-02T08:40:12.581Z,93418.93
2018-12-02T08:42:40.739Z,93415.55
2018-12-02T08:45:13.773Z,93417.78
2018-12-02T08:47:42.493Z,93411.09
2018-12-02T08:50:13.536Z,93429.79
2018-12-02T08:52:41.593Z,93432.52
2018-12-02T08:55:10.761Z,93425.83
2018-12-02T08:57:38.819Z,93431.59
2018-12-02T09:00:10.198Z,93429.78
2018-12-02T09:02:38.265Z,93432.72
2018-12-02T09:05:08.397Z,93418.69
2018-12-02T09:07:36.451Z,93433.61
2018-12-02T09:10:09.985Z,93435.00
2018-12-02T09:12:38.039Z,93432.88
2018-12-02T09:15:08.466Z,93435.57
2018-12-02T09:17:36.584Z,93432.38
2018-12-02T09:20:09.477Z,93443.84
2018-12-02T09:22:37.591Z,93435.67
2018-12-02T09:25:06.014Z,93435.78
2018-12-02T09:27:34.102Z,93430.63
2018-12-02T09:30:02.150Z,93433.66
2018-12-02T09:32:30.255Z,93430.58
2018-12-02T09:34:58.306Z,93425.88
2018-12-02T09:37:26.381Z,93413.77
2018-12-02T09:39:54.453Z,93422.31
2018-12-02T09:42:22.513Z,93430.72
2018-12-02T09:44:50.546Z,93429.66
2018-12-02T09:47:18.612Z,93429.00
2018-12-02T09:49:46.693Z,93420.18
2018-12-02T09:52:14.761Z,93427.95
2018-12-02T09:54:42.797Z,93422.02
2018-12-02T09:57:10.854Z,93424.25
2018-12-02T09:59:38.918Z,93419.35
2018-12-02T10:02:07.458Z,93403.67
2018-12-02T10:04:35.503Z,93402.19
2018-12-02T10:07:03.580Z,93407.45
2018-12-02T10:09:31.643Z,93409.47
2018-12-02T10:11:59.744Z,93407.70
2018-12-02T10:14:27.778Z,93413.25
2018-12-02T10:16:56.285Z,93413.23
2018-12-02T10:19:24.423Z,93411.69
2018-12-02T10:21:52.764Z,93408.56
2018-12-02T10:24:20.865Z,93405.87
2018-12-02T10:26:48.923Z,93412.31
2018-12-02T10:29:16.967Z,93413.12
2018-12-02T10:31:45.029Z,93407.24
2018-12-02T10:34:13.110Z,93395.20
2018-12-02T10:36:41.170Z,93407.03
2018-12-02T10:39:09.951Z,93403.31
2018-12-02T10:41:37.994Z,93405.78
2018-12-02T10:44:06.318Z,93398.59
2018-12-02T10:46:34.425Z,93403.41
2018-12-02T10:49:02.815Z,93401.23
2018-12-02T10:51:30.927Z,93398.30
2018-12-02T10:53:58.982Z,93396.76
2018-12-02T10:56:27.083Z,93389.92
2018-12-02T10:58:55.192Z,93391.92
2018-12-02T11:01:28.528Z,93398.77
2018-12-02T11:03:56.585Z,93393.00
2018-12-02T11:06:24.686Z,93400.09
2018-12-02T11:08:52.752Z,93397.05
2018-12-02T11:11:20.910Z,93394.98
2018-12-02T11:13:48.970Z,93408.36
2018-12-02T11:16:17.169Z,93401.85
2018-12-02T11:18:45.215Z,93413.47
2018-12-02T11:21:13.259Z,93405.19
2018-12-02T11:23:41.281Z,93405.61
2018-12-02T11:26:09.342Z,93415.42
2018-12-02T11:28:37.433Z,93402.89
2018-12-02T11:31:05.811Z,93388.59
2018-12-02T11:33:33.909Z,93391.91
2018-12-02T11:36:02.016Z,93387.43
2018-12-02T11:38:30.122Z,93386.59
2018-12-02T11:40:58.162Z,93373.20
2018-12-02T11:43:26.250Z,93378.31
2018-12-02T11:45:54.316Z,93375.13
2018-12-02T11:48:23.262Z,93374.91
2018-12-02T11:50:51.338Z,93383.77
2018-12-02T11:53:19.381Z,93390.82
2018-12-02T11:55:47.507Z,93384.23
2018-12-02T11:58:15.635Z,93390.28
2018-12-02T12:00:43.687Z,93381.11
2018-12-02T12:03:11.776Z,93390.24
2018-12-02T12:05:39.911Z,93380.58
2018-12-02T12:08:09.242Z,93378.30
2018-12-02T12:10:37.350Z,93377.44
2018-12-02T12:13:05.553Z,93370.13
2018-12-02T12:15:33.750Z,93367.02
2018-12-02T12:18:01.823Z,93376.55
2018-12-02T12:20:31.021Z,93377.45
2018-12-02T12:23:00.059Z,93377.77
2018-12-02T12:25:28.244Z,93373.59
2018-12-02T12:27:57.104Z,93373.06
2018-12-02T12:30:26.128Z,93378.27
2018-12-02T12:32:54.453Z,93370.09
2018-12-02T12:35:22.922Z,93383.47
2018-12-02T12:37:50.980Z,93376.99
2018-12-02T12:40:21.094Z,93381.95
2018-12-02T12:42:50.806Z,93374.59
2018-12-02T12:45:18.857Z,93389.36
2018-12-02T12:47:46.882Z,93382.19
2018-12-02T12:50:15.692Z,93380.36
2018-12-02T12:52:44.135Z,93385.61
2018-12-02T12:55:13.154Z,93378.94
2018-12-02T12:57:41.187Z,93381.20
2018-12-02T13:00:11.853Z,93375.45
2018-12-02T13:02:40.425Z,93377.31
2018-12-02T13:05:10.320Z,93375.44
2018-12-02T13:07:38.346Z,93373.92
2018-12-02T13:10:09.331Z,93372.39
2018-12-02T13:12:37.476Z,93374.22
2018-12-02T13:15:08.802Z,93373.02
2018-12-02T13:17:36.837Z,93369.97
2018-12-02T13:20:07.889Z,93373.93
2018-12-02T13:22:35.929Z,93379.98
2018-12-02T13:25:04.129Z,93382.66
2018-12-02T13:27:32.183Z,93379.06
2018-12-02T13:30:00.219Z,93394.02
2018-12-02T13:32:28.275Z,93397.19
2018-12-02T13:34:56.313Z,93390.27
2018-12-02T13:37:24.369Z,93400.89
2018-12-02T13:39:52.403Z,93398.09
2018-12-02T13:42:20.466Z,93408.98
2018-12-02T13:44:48.503Z,93401.95
2018-12-02T13:47:16.558Z,93414.31
2018-12-02T13:49:44.585Z,93418.52
2018-12-02T13:52:12.654Z,93414.87
2018-12-02T13:54:40.703Z,93426.53
2018-12-02T13:57:08.755Z,93428.32
2018-12-02T13:59:36.850Z,93424.95
2018-12-02T14:02:05.270Z,93435.19
2018-12-02T14:04:33.336Z,93432.87
2018-12-02T14:07:01.374Z,93430.95
2018-12-02T14:09:29.430Z,93430.13
2018-12-02T14:11:57.482Z,93431.84
2018-12-02T14:14:25.593Z,93431.18
2018-12-02T14:17:03.114Z,93441.23
2018-12-02T14:19:34.333Z,93443.27
2018-12-02T14:21:59.213Z,93443.27
2018-12-02T14:24:27.237Z,93441.48
2018-12-02T14:26:55.337Z,93445.91
2018-12-02T14:29:26.634Z,93452.48
2018-12-02T14:31:57.369Z,93447.13
2018-12-02T14:34:25.414Z,93456.82
2018-12-02T14:36:53.457Z,93463.70
2018-12-02T14:39:21.502Z,93459.19
2018-12-02T14:41:49.571Z,93456.95
2018-12-02T14:44:17.608Z,93460.45
2018-12-02T14:46:45.661Z,93455.31
2018-12-02T14:49:13.698Z,93452.13
2018-12-02T14:51:41.752Z,93463.34
2018-12-02T14:54:09.789Z,93458.22
2018-12-02T14:56:37.891Z,93452.63
2018-12-02T14:59:05.894Z,93462.44
2018-12-02T15:01:33.945Z,93466.79
2018-12-02T15:04:01.990Z,93465.95
2018-12-02T15:06:30.146Z,93464.89
2018-12-02T15:08:58.173Z,93472.78
2018-12-02T15:11:26.218Z,93463.07
2018-12-02T15:13:54.262Z,93481.44
2018-12-02T15:16:22.290Z,93479.97
2018-12-02T15:18:50.320Z,93478.13
2018-12-02T15:21:18.386Z,93479.89
2018-12-02T15:23:46.555Z,93482.80
2018-12-02T15:26:14.603Z,93486.20
2018-12-02T15:28:42.638Z,93490.06
2018-12-02T15:31:10.673Z,93487.38
2018-12-02T15:33:39.393Z,93493.92
2018-12-02T15:36:07.454Z,93498.13
2018-12-02T15:38:35.508Z,93495.44
2018-12-02T15:41:03.557Z,93494.74
2018-12-02T15:43:31.600Z,93492.98
2018-12-02T15:45:59.664Z,93502.11
2018-12-02T15:48:27.721Z,93496.24
2018-12-02T15:50:55.842Z,93496.84
2018-12-02T15:53:23.890Z,93498.91
2018-12-02T15:55:51.967Z,93498.17
2018-12-02T15:58:20.217Z,93500.45
2018-12-02T16:00:48.469Z,93505.88
2018-12-02T16:03:16.506Z,93505.48
2018-12-02T16:05:44.539Z,93504.36
2018-12-02T16:08:12.576Z,93510.75
2018-12-02T16:10:40.607Z,93510.52
2018-12-02T16:13:10.095Z,93521.86
2018-12-02T16:15:38.162Z,93522.54
2018-12-02T16:18:07.886Z,93519.67
2018-12-02T16:20:40.017Z,93523.92
2018-12-02T16:23:08.100Z,93522.36
2018-12-02T16:25:36.130Z,93527.48
2018-12-02T16:28:04.187Z,93528.91
2018-12-02T16:30:38.601Z,93525.77
2018-12-02T16:33:06.645Z,93525.58
2018-12-02T16:35:35.047Z,93528.22
2018-12-02T16:38:03.106Z,93532.28
2018-12-02T16:40:31.147Z,93537.69
2018-12-02T16:42:59.187Z,93536.95
2018-12-02T16:45:27.322Z,93536.94
2018-12-02T16:47:56.438Z,93533.23
2018-12-02T16:50:28.754Z,93539.16
2018-12-02T16:52:58.011Z,93534.30
2018-12-02T16:55:27.735Z,93539.01
2018-12-02T16:58:02.211Z,93536.89
2018-12-02T17:00:33.733Z,93557.72
2018-12-02T17:03:01.779Z,93542.22
2018-12-02T17:05:29.820Z,93547.23
2018-12-02T17:07:57.859Z,93555.59
2018-12-02T17:10:25.926Z,93558.58
2018-12-02T17:12:53.957Z,93552.58
2018-12-02T17:15:22.042Z,93557.30
2018-12-02T17:17:50.083Z,93561.14
2018-12-02T17:20:18.120Z,93565.76
2018-12-02T17:22:46.543Z,93569.39
2018-12-02T17:25:14.911Z,93565.80
2018-12-02T17:27:44.581Z,93565.55
2018-12-02T17:30:48.405Z,93566.33
2018-12-02T17:33:16.646Z,93558.99
2018-12-02T17:35:44.686Z,93561.45
2018-12-02T17:38:12.757Z,93562.88
2018-12-02T17:40:40.801Z,93569.55
2018-12-02T17:43:10.631Z,93567.57
2018-12-02T17:45:38.677Z,93557.28
2018-12-02T17:48:06.908Z,93550.56
2018-12-02T17:50:34.965Z,93551.53
2018-12-02T17:53:03.002Z,93557.03
2018-12-02T17:55:31.039Z,93568.03
2018-12-02T17:57:59.082Z,93564.82
2018-12-02T18:00:28.078Z,93561.63
2018-12-02T18:02:58.529Z,93565.70
2018-12-02T18:05:28.331Z,93551.70
2018-12-02T18:07:56.371Z,93560.61
2018-12-02T18:10:24.401Z,93560.45
2018-12-02T18:12:52.699Z,93562.58
2018-12-02T18:15:20.770Z,93566.06
2018-12-02T18:17:48.797Z,93560.81
2018-12-02T18:20:17.774Z,93566.59
2018-12-02T18:22:45.957Z,93566.66
2018-12-02T18:25:15.229Z,93571.62
2018-12-02T18:27:43.245Z,93576.92
2018-12-02T18:30:18.672Z,93572.85
2018-12-02T18:32:47.228Z,93571.23
2018-12-02T18:35:27.650Z,93572.53
2018-12-02T18:38:00.039Z,93568.59
2018-12-02T18:40:28.103Z,93576.61
2018-12-02T18:42:56.473Z,93569.34
2018-12-02T18:45:24.666Z,93581.81
2018-12-02T18:47:52.746Z,93577.56
2018-12-02T18:50:20.857Z,93569.61
2018-12-02T18:52:49.197Z,93565.95
2018-12-02T18:55:17.260Z,93565.39
2018-12-02T18:57:45.384Z,93577.55
2018-12-02T19:00:20.014Z,93563.95
2018-12-02T19:02:49.165Z,93566.45
2018-12-02T19:05:17.384Z,93572.28
2018-12-02T19:07:45.502Z,93579.79
2018-12-02T19:10:18.276Z,93573.82
2018-12-02T19:12:46.346Z,93573.52
2018-12-02T19:15:15.153Z,93577.86
2018-12-02T19:17:43.581Z,93579.55
2018-12-02T19:20:17.161Z,93577.47
2018-12-02T19:22:46.352Z,93576.97
2018-12-02T19:25:15.993Z,93572.31
2018-12-02T19:27:44.084Z,93571.52
2018-12-02T19:30:13.574Z,93586.09
2018-12-02T19:32:41.633Z,93586.16
2018-12-02T19:35:29.135Z,93585.17
2018-12-02T19:38:00.147Z,93591.81
2018-12-02T19:40:28.192Z,93594.23
2018-12-02T19:42:56.463Z,93589.41
2018-12-02T19:45:24.671Z,93596.04
2018-12-02T19:47:52.760Z,93591.82
2018-12-02T19:50:20.809Z,93592.50
2018-12-02T19:52:49.226Z,93591.55
2018-12-02T19:55:17.278Z,93589.53
2018-12-02T19:57:46.855Z,93586.09
2018-12-02T20:00:22.460Z,93586.10
2018-12-02T20:02:50.512Z,93588.23
2018-12-02T20:05:18.536Z,93585.08
2018-12-02T20:07:49.262Z,93587.99
2018-12-02T20:13:06.747Z,93583.39
2018-12-02T20:15:34.799Z,93584.92
2018-12-02T20:18:02.991Z,93577.79
2018-12-02T20:20:39.012Z,93572.59
2018-12-02T20:23:07.320Z,93579.83
2018-12-02T20:25:35.432Z,93587.95
2018-12-02T20:28:04.469Z,93589.90
2018-12-02T20:30:33.667Z,93591.60
2018-12-02T20:33:01.877Z,93589.84
2018-12-02T20:35:30.042Z,93593.42
2018-12-02T20:37:58.088Z,93588.99
2018-12-02T20:40:26.387Z,93591.58
2018-12-02T20:42:54.455Z,93595.43
2018-12-02T20:45:22.510Z,93590.33
2018-12-02T20:47:50.561Z,93598.25
2018-12-02T20:50:19.078Z,93606.52
2018-12-02T20:52:47.695Z,93598.30
2018-12-02T20:55:18.851Z,93601.84
2018-12-02T20:57:47.137Z,93602.70
2018-12-02T21:00:19.744Z,93596.19
2018-12-02T21:02:51.550Z,93597.94
2018-12-02T21:05:27.153Z,93594.34
2018-12-02T21:07:55.206Z,93589.86
2018-12-02T21:10:23.262Z,93594.61
2018-12-02T21:12:51.403Z,93591.09
2018-12-02T21:15:20.455Z,93595.80
2018-12-02T21:17:48.593Z,93593.00
2018-12-02T21:20:16.640Z,93596.27
2018-12-02T21:22:44.722Z,93582.70
2018-12-02T21:25:15.347Z,93579.56
2018-12-02T21:27:44.418Z,93579.42
2018-12-02T21:30:14.835Z,93574.91
2018-12-02T21:32:42.901Z,93579.14
2018-12-02T21:35:11.009Z,93578.83
2018-12-02T21:37:39.082Z,93581.84
2018-12-02T21:40:11.373Z,93576.78
2018-12-02T21:42:39.422Z,93571.41
2018-12-02T21:45:11.412Z,93572.12
2018-12-02T21:47:41.011Z,93569.98
2018-12-02T21:50:11.913Z,93572.28
2018-12-02T21:52:40.108Z,93579.91
2018-12-02T21:55:08.500Z,93564.72
2018-12-02T21:57:36.812Z,93564.67
2018-12-02T22:00:14.510Z,93561.30
2018-12-02T22:02:43.206Z,93558.75
2018-12-02T22:05:11.247Z,93560.77
2018-12-02T22:10:13.431Z,93560.85
2018-12-02T22:12:41.519Z,93567.53
2018-12-02T22:15:10.310Z,93571.81
2018-12-02T22:17:38.399Z,93576.60
2018-12-02T22:20:09.805Z,93571.53
2018-12-02T22:22:37.890Z,93571.41
2018-12-02T22:25:07.983Z,93572.23
2018-12-02T22:27:36.035Z,93571.50
2018-12-02T22:30:04.511Z,93572.19
2018-12-02T22:32:32.545Z,93569.34
2018-12-02T22:35:00.590Z,93570.83
2018-12-02T22:37:28.621Z,93574.03
2018-12-02T22:39:56.688Z,93569.02
2018-12-02T22:42:24.759Z,93570.22
2018-12-02T22:44:54.261Z,93566.73
2018-12-02T22:47:22.298Z,93573.06
2018-12-02T22:49:50.405Z,93567.86
2018-12-02T22:52:18.475Z,93569.89
2018-12-02T22:54:46.546Z,93572.92
2018-12-02T22:57:14.596Z,93573.95
2018-12-02T22:59:42.638Z,93568.84
2018-12-02T23:02:17.564Z,93572.75
2018-12-02T23:04:45.688Z,93572.75
2018-12-02T23:07:13.742Z,93568.37
2018-12-02T23:09:41.829Z,93566.13
2018-12-02T23:12:09.862Z,93559.73
2018-12-02T23:14:38.025Z,93549.55
2018-12-02T23:17:21.122Z,93552.01
2018-12-02T23:19:49.174Z,93552.87
2018-12-02T23:22:17.229Z,93550.11
2018-12-02T23:24:45.272Z,93553.95
2018-12-02T23:27:13.313Z,93552.23
2018-12-02T23:29:41.365Z,93554.69
2018-12-02T23:32:09.409Z,93555.23
2018-12-02T23:34:37.469Z,93544.22
2018-12-02T23:37:05.599Z,93543.63
2018-12-02T23:39:33.637Z,93538.58
2018-12-02T23:42:01.690Z,93532.28
2018-12-02T23:44:29.746Z,93536.96
2018-12-02T23:46:57.820Z,93528.64
2018-12-02T23:49:25.851Z,93536.31
2018-12-02T23:51:53.909Z,93535.91
2018-12-02T23:54:21.955Z,93532.35
2018-12-02T23:56:49.994Z,93529.85
2018-12-02T23:59:18.025Z,93529.37
